sensor_id;sensor_type;location;lat;lon;timestamp;pressure;altitude;pressure_sealevel;temperature;humidity
62926;BME280;55732;52.248;-0.844;2023-03-04T00:01:20;102275.30;;;5.06;71.33
62926;BME280;55732;52.248;-0.844;2023-03-04T00:03:45;102275.62;;;5.06;71.40
62926;BME280;55732;52.248;-0.844;2023-03-04T00:06:10;102277.91;;;5.06;71.45
62926;BME280;55732;52.248;-0.844;2023-03-04T00:08:36;102276.94;;;5.08;71.59
62926;BME280;55732;52.248;-0.844;2023-03-04T00:11:02;102278.24;;;5.10;71.25
62926;BME280;55732;52.248;-0.844;2023-03-04T00:13:27;102281.69;;;5.09;71.17
62926;BME280;55732;52.248;-0.844;2023-03-04T00:15:53;102275.82;;;5.06;71.23
62926;BME280;55732;52.248;-0.844;2023-03-04T00:18:18;102270.98;;;5.04;71.33
62926;BME280;55732;52.248;-0.844;2023-03-04T00:20:45;102268.23;;;5.01;71.41
62926;BME280;55732;52.248;-0.844;2023-03-04T00:23:12;102272.38;;;5.01;71.37
62926;BME280;55732;52.248;-0.844;2023-03-04T00:25:37;102270.95;;;5.00;71.52
62926;BME280;55732;52.248;-0.844;2023-03-04T00:28:03;102273.76;;;5.00;71.63
62926;BME280;55732;52.248;-0.844;2023-03-04T00:30:28;102276.55;;;5.00;71.69
62926;BME280;55732;52.248;-0.844;2023-03-04T00:32:54;102273.20;;;4.99;71.58
62926;BME280;55732;52.248;-0.844;2023-03-04T00:35:19;102270.50;;;4.98;71.87
62926;BME280;55732;52.248;-0.844;2023-03-04T00:37:44;102268.95;;;4.98;71.78
62926;BME280;55732;52.248;-0.844;2023-03-04T00:40:11;102270.13;;;4.97;71.73
62926;BME280;55732;52.248;-0.844;2023-03-04T00:42:36;102270.35;;;4.98;71.86
62926;BME280;55732;52.248;-0.844;2023-03-04T00:45:03;102269.61;;;5.01;71.95
62926;BME280;55732;52.248;-0.844;2023-03-04T00:47:28;102267.86;;;5.04;72.02
62926;BME280;55732;52.248;-0.844;2023-03-04T00:49:54;102268.66;;;5.06;71.90
62926;BME280;55732;52.248;-0.844;2023-03-04T00:52:19;102272.52;;;5.06;72.00
62926;BME280;55732;52.248;-0.844;2023-03-04T00:54:44;102272.86;;;5.06;72.16
62926;BME280;55732;52.248;-0.844;2023-03-04T00:57:10;102271.27;;;5.06;72.14
62926;BME280;55732;52.248;-0.844;2023-03-04T00:59:35;102274.77;;;5.06;72.14
62926;BME280;55732;52.248;-0.844;2023-03-04T01:02:01;102279.29;;;5.06;72.02
62926;BME280;55732;52.248;-0.844;2023-03-04T01:04:26;102276.89;;;5.03;71.97
62926;BME280;55732;52.248;-0.844;2023-03-04T01:06:52;102280.42;;;5.01;71.97
62926;BME280;55732;52.248;-0.844;2023-03-04T01:09:17;102281.79;;;5.00;71.79
62926;BME280;55732;52.248;-0.844;2023-03-04T01:11:42;102280.57;;;5.00;71.85
62926;BME280;55732;52.248;-0.844;2023-03-04T01:14:08;102277.23;;;5.00;71.91
62926;BME280;55732;52.248;-0.844;2023-03-04T01:16:34;102277.16;;;5.02;71.96
62926;BME280;55732;52.248;-0.844;2023-03-04T01:18:59;102276.80;;;5.05;71.89
62926;BME280;55732;52.248;-0.844;2023-03-04T01:21:24;102276.24;;;5.08;71.70
62926;BME280;55732;52.248;-0.844;2023-03-04T01:23:50;102275.90;;;5.08;71.57
62926;BME280;55732;52.248;-0.844;2023-03-04T01:26:15;102279.96;;;5.10;71.64
62926;BME280;55732;52.248;-0.844;2023-03-04T01:28:41;102280.56;;;5.12;71.60
62926;BME280;55732;52.248;-0.844;2023-03-04T01:31:06;102278.73;;;5.13;71.48
62926;BME280;55732;52.248;-0.844;2023-03-04T01:33:32;102276.73;;;5.12;71.03
62926;BME280;55732;52.248;-0.844;2023-03-04T01:35:57;102274.64;;;5.07;71.10
62926;BME280;55732;52.248;-0.844;2023-03-04T01:38:23;102273.89;;;5.06;71.28
62926;BME280;55732;52.248;-0.844;2023-03-04T01:40:49;102274.31;;;5.04;71.23
62926;BME280;55732;52.248;-0.844;2023-03-04T01:43:21;102266.30;;;5.01;70.97
62926;BME280;55732;52.248;-0.844;2023-03-04T01:45:49;102266.54;;;4.99;71.07
62926;BME280;55732;52.248;-0.844;2023-03-04T01:48:15;102266.38;;;4.99;71.23
62926;BME280;55732;52.248;-0.844;2023-03-04T01:50:43;102266.27;;;5.01;71.16
62926;BME280;55732;52.248;-0.844;2023-03-04T01:53:32;102264.25;;;5.02;70.89
62926;BME280;55732;52.248;-0.844;2023-03-04T01:56:01;102256.95;;;5.03;71.15
62926;BME280;55732;52.248;-0.844;2023-03-04T01:58:30;102255.10;;;5.04;70.88
62926;BME280;55732;52.248;-0.844;2023-03-04T02:00:57;102251.27;;;5.04;70.75
62926;BME280;55732;52.248;-0.844;2023-03-04T02:03:23;102251.24;;;5.03;70.83
62926;BME280;55732;52.248;-0.844;2023-03-04T02:05:51;102243.10;;;5.01;70.65
62926;BME280;55732;52.248;-0.844;2023-03-04T02:08:20;102240.29;;;5.01;70.57
62926;BME280;55732;52.248;-0.844;2023-03-04T02:10:46;102235.63;;;4.99;70.53
62926;BME280;55732;52.248;-0.844;2023-03-04T02:13:13;102233.95;;;4.97;70.57
62926;BME280;55732;52.248;-0.844;2023-03-04T02:15:40;102230.73;;;4.95;70.67
62926;BME280;55732;52.248;-0.844;2023-03-04T02:18:17;102228.25;;;4.94;70.77
62926;BME280;55732;52.248;-0.844;2023-03-04T02:21:16;102229.97;;;4.93;70.82
62926;BME280;55732;52.248;-0.844;2023-03-04T02:23:48;102226.11;;;4.93;70.97
62926;BME280;55732;52.248;-0.844;2023-03-04T02:26:20;102220.04;;;4.94;71.06
62926;BME280;55732;52.248;-0.844;2023-03-04T02:28:47;102219.04;;;4.94;70.97
62926;BME280;55732;52.248;-0.844;2023-03-04T02:34:00;102221.02;;;4.92;70.92
62926;BME280;55732;52.248;-0.844;2023-03-04T02:36:27;102216.42;;;4.91;71.05
62926;BME280;55732;52.248;-0.844;2023-03-04T02:38:54;102215.72;;;4.91;71.00
62926;BME280;55732;52.248;-0.844;2023-03-04T02:41:23;102219.27;;;4.92;70.96
62926;BME280;55732;52.248;-0.844;2023-03-04T02:43:51;102217.63;;;4.91;71.06
62926;BME280;55732;52.248;-0.844;2023-03-04T02:46:17;102218.67;;;4.91;71.21
62926;BME280;55732;52.248;-0.844;2023-03-04T02:48:43;102215.70;;;4.91;71.11
62926;BME280;55732;52.248;-0.844;2023-03-04T02:51:08;102212.45;;;4.89;71.13
62926;BME280;55732;52.248;-0.844;2023-03-04T02:53:34;102213.33;;;4.89;71.37
62926;BME280;55732;52.248;-0.844;2023-03-04T02:55:59;102214.57;;;4.89;71.01
62926;BME280;55732;52.248;-0.844;2023-03-04T02:58:25;102207.21;;;4.88;71.10
62926;BME280;55732;52.248;-0.844;2023-03-04T03:00:50;102211.52;;;4.87;71.00
62926;BME280;55732;52.248;-0.844;2023-03-04T03:03:15;102206.21;;;4.86;70.81
62926;BME280;55732;52.248;-0.844;2023-03-04T03:05:41;102206.69;;;4.85;70.89
62926;BME280;55732;52.248;-0.844;2023-03-04T03:08:06;102205.21;;;4.83;70.62
62926;BME280;55732;52.248;-0.844;2023-03-04T03:10:32;102205.49;;;4.82;70.72
62926;BME280;55732;52.248;-0.844;2023-03-04T03:12:58;102202.73;;;4.82;70.80
62926;BME280;55732;52.248;-0.844;2023-03-04T03:15:23;102206.09;;;4.83;70.61
62926;BME280;55732;52.248;-0.844;2023-03-04T03:17:49;102202.14;;;4.81;70.61
62926;BME280;55732;52.248;-0.844;2023-03-04T03:20:15;102209.89;;;4.79;70.52
62926;BME280;55732;52.248;-0.844;2023-03-04T03:22:41;102209.70;;;4.75;70.52
62926;BME280;55732;52.248;-0.844;2023-03-04T03:25:07;102201.55;;;4.72;70.50
62926;BME280;55732;52.248;-0.844;2023-03-04T03:27:33;102206.58;;;4.72;70.77
62926;BME280;55732;52.248;-0.844;2023-03-04T03:29:58;102199.77;;;4.71;70.56
62926;BME280;55732;52.248;-0.844;2023-03-04T03:32:24;102199.95;;;4.72;70.95
62926;BME280;55732;52.248;-0.844;2023-03-04T03:34:49;102196.82;;;4.76;71.05
62926;BME280;55732;52.248;-0.844;2023-03-04T03:37:15;102197.30;;;4.78;70.92
62926;BME280;55732;52.248;-0.844;2023-03-04T03:39:40;102202.79;;;4.80;70.94
62926;BME280;55732;52.248;-0.844;2023-03-04T03:42:06;102200.88;;;4.80;70.96
62926;BME280;55732;52.248;-0.844;2023-03-04T03:44:31;102199.58;;;4.79;71.07
62926;BME280;55732;52.248;-0.844;2023-03-04T03:46:57;102198.08;;;4.77;70.96
62926;BME280;55732;52.248;-0.844;2023-03-04T03:49:22;102193.11;;;4.75;71.01
62926;BME280;55732;52.248;-0.844;2023-03-04T03:51:48;102193.25;;;4.78;71.12
62926;BME280;55732;52.248;-0.844;2023-03-04T03:54:13;102201.69;;;4.79;71.00
62926;BME280;55732;52.248;-0.844;2023-03-04T03:56:39;102196.95;;;4.78;71.10
62926;BME280;55732;52.248;-0.844;2023-03-04T03:59:04;102193.42;;;4.78;71.15
62926;BME280;55732;52.248;-0.844;2023-03-04T04:01:29;102194.00;;;4.79;71.19
62926;BME280;55732;52.248;-0.844;2023-03-04T04:03:55;102196.27;;;4.79;70.96
62926;BME280;55732;52.248;-0.844;2023-03-04T04:06:20;102188.85;;;4.77;70.94
62926;BME280;55732;52.248;-0.844;2023-03-04T04:08:46;102194.56;;;4.76;70.95
62926;BME280;55732;52.248;-0.844;2023-03-04T04:11:12;102192.98;;;4.72;70.94
62926;BME280;55732;52.248;-0.844;2023-03-04T04:13:38;102195.48;;;4.69;71.16
62926;BME280;55732;52.248;-0.844;2023-03-04T04:16:04;102188.20;;;4.67;71.41
62926;BME280;55732;52.248;-0.844;2023-03-04T04:18:30;102186.92;;;4.66;71.41
62926;BME280;55732;52.248;-0.844;2023-03-04T04:20:55;102185.18;;;4.66;71.29
62926;BME280;55732;52.248;-0.844;2023-03-04T04:23:21;102185.30;;;4.68;71.46
62926;BME280;55732;52.248;-0.844;2023-03-04T04:25:46;102183.63;;;4.70;71.60
62926;BME280;55732;52.248;-0.844;2023-03-04T04:28:12;102184.42;;;4.71;71.64
62926;BME280;55732;52.248;-0.844;2023-03-04T04:30:38;102184.79;;;4.72;71.84
62926;BME280;55732;52.248;-0.844;2023-03-04T04:33:03;102189.61;;;4.75;71.70
62926;BME280;55732;52.248;-0.844;2023-03-04T04:35:34;102189.88;;;4.77;71.73
62926;BME280;55732;52.248;-0.844;2023-03-04T04:38:01;102191.60;;;4.76;71.72
62926;BME280;55732;52.248;-0.844;2023-03-04T04:40:26;102191.94;;;4.76;71.77
62926;BME280;55732;52.248;-0.844;2023-03-04T04:42:52;102192.11;;;4.76;71.79
62926;BME280;55732;52.248;-0.844;2023-03-04T04:45:17;102195.27;;;4.76;71.81
62926;BME280;55732;52.248;-0.844;2023-03-04T04:47:43;102198.96;;;4.77;71.47
62926;BME280;55732;52.248;-0.844;2023-03-04T04:50:09;102198.98;;;4.77;71.54
62926;BME280;55732;52.248;-0.844;2023-03-04T04:52:35;102200.48;;;4.76;71.46
62926;BME280;55732;52.248;-0.844;2023-03-04T04:55:00;102200.61;;;4.75;71.54
62926;BME280;55732;52.248;-0.844;2023-03-04T04:57:26;102202.37;;;4.75;71.75
62926;BME280;55732;52.248;-0.844;2023-03-04T04:59:51;102199.85;;;4.74;71.55
62926;BME280;55732;52.248;-0.844;2023-03-04T05:02:17;102203.66;;;4.73;71.71
62926;BME280;55732;52.248;-0.844;2023-03-04T05:04:42;102206.30;;;4.73;71.72
62926;BME280;55732;52.248;-0.844;2023-03-04T05:07:07;102207.30;;;4.76;71.72
62926;BME280;55732;52.248;-0.844;2023-03-04T05:09:33;102205.65;;;4.78;71.85
62926;BME280;55732;52.248;-0.844;2023-03-04T05:11:58;102210.29;;;4.80;71.85
62926;BME280;55732;52.248;-0.844;2023-03-04T05:14:24;102203.46;;;4.83;71.79
62926;BME280;55732;52.248;-0.844;2023-03-04T05:16:49;102210.33;;;4.85;71.74
62926;BME280;55732;52.248;-0.844;2023-03-04T05:19:17;102209.86;;;4.86;71.72
62926;BME280;55732;52.248;-0.844;2023-03-04T05:21:43;102207.14;;;4.87;71.80
62926;BME280;55732;52.248;-0.844;2023-03-04T05:24:08;102210.47;;;4.87;71.57
62926;BME280;55732;52.248;-0.844;2023-03-04T05:26:34;102212.62;;;4.85;71.68
62926;BME280;55732;52.248;-0.844;2023-03-04T05:28:59;102215.27;;;4.82;71.61
62926;BME280;55732;52.248;-0.844;2023-03-04T05:31:25;102214.94;;;4.79;71.63
62926;BME280;55732;52.248;-0.844;2023-03-04T05:33:50;102216.26;;;4.77;71.55
62926;BME280;55732;52.248;-0.844;2023-03-04T05:36:16;102217.60;;;4.76;71.55
62926;BME280;55732;52.248;-0.844;2023-03-04T05:38:41;102216.71;;;4.76;71.65
62926;BME280;55732;52.248;-0.844;2023-03-04T05:41:06;102219.73;;;4.77;71.60
62926;BME280;55732;52.248;-0.844;2023-03-04T05:43:33;102220.34;;;4.75;71.46
62926;BME280;55732;52.248;-0.844;2023-03-04T05:46:01;102221.24;;;4.76;71.63
62926;BME280;55732;52.248;-0.844;2023-03-04T05:48:27;102222.39;;;4.78;71.73
62926;BME280;55732;52.248;-0.844;2023-03-04T05:50:58;102221.11;;;4.80;71.84
62926;BME280;55732;52.248;-0.844;2023-03-04T05:53:24;102222.09;;;4.82;71.81
62926;BME280;55732;52.248;-0.844;2023-03-04T05:55:50;102222.54;;;4.84;71.80
62926;BME280;55732;52.248;-0.844;2023-03-04T05:58:16;102224.05;;;4.87;71.77
62926;BME280;55732;52.248;-0.844;2023-03-04T06:00:42;102220.86;;;4.89;71.67
62926;BME280;55732;52.248;-0.844;2023-03-04T06:03:16;102224.27;;;4.91;71.66
62926;BME280;55732;52.248;-0.844;2023-03-04T06:05:42;102218.73;;;4.92;71.47
62926;BME280;55732;52.248;-0.844;2023-03-04T06:08:08;102214.67;;;4.91;71.56
62926;BME280;55732;52.248;-0.844;2023-03-04T06:10:34;102214.09;;;4.90;71.58
62926;BME280;55732;52.248;-0.844;2023-03-04T06:12:59;102213.48;;;4.88;71.61
62926;BME280;55732;52.248;-0.844;2023-03-04T06:15:25;102210.98;;;4.87;71.69
62926;BME280;55732;52.248;-0.844;2023-03-04T06:17:50;102208.83;;;4.86;71.65
62926;BME280;55732;52.248;-0.844;2023-03-04T06:20:16;102206.14;;;4.81;71.58
62926;BME280;55732;52.248;-0.844;2023-03-04T06:22:41;102212.22;;;4.84;71.69
62926;BME280;55732;52.248;-0.844;2023-03-04T06:25:07;102209.91;;;4.83;71.64
62926;BME280;55732;52.248;-0.844;2023-03-04T06:27:33;102214.86;;;4.81;71.69
62926;BME280;55732;52.248;-0.844;2023-03-04T06:29:58;102210.41;;;4.79;71.75
62926;BME280;55732;52.248;-0.844;2023-03-04T06:32:24;102217.95;;;4.80;71.76
62926;BME280;55732;52.248;-0.844;2023-03-04T06:34:49;102215.01;;;4.80;71.84
62926;BME280;55732;52.248;-0.844;2023-03-04T06:37:15;102219.63;;;4.82;72.02
62926;BME280;55732;52.248;-0.844;2023-03-04T06:39:40;102222.70;;;4.84;71.98
62926;BME280;55732;52.248;-0.844;2023-03-04T06:42:06;102225.39;;;4.86;71.94
62926;BME280;55732;52.248;-0.844;2023-03-04T06:44:31;102230.15;;;4.86;71.82
62926;BME280;55732;52.248;-0.844;2023-03-04T06:46:56;102228.09;;;4.87;71.72
62926;BME280;55732;52.248;-0.844;2023-03-04T06:49:22;102230.64;;;4.86;71.59
62926;BME280;55732;52.248;-0.844;2023-03-04T06:51:47;102230.80;;;4.86;71.63
62926;BME280;55732;52.248;-0.844;2023-03-04T06:54:13;102232.03;;;4.86;71.55
62926;BME280;55732;52.248;-0.844;2023-03-04T06:56:38;102231.15;;;4.86;71.63
62926;BME280;55732;52.248;-0.844;2023-03-04T06:59:03;102231.08;;;4.84;71.72
62926;BME280;55732;52.248;-0.844;2023-03-04T07:01:29;102231.77;;;4.84;71.76
62926;BME280;55732;52.248;-0.844;2023-03-04T07:03:55;102233.52;;;4.84;71.59
62926;BME280;55732;52.248;-0.844;2023-03-04T07:06:24;102234.73;;;4.83;71.70
62926;BME280;55732;52.248;-0.844;2023-03-04T07:08:50;102236.45;;;4.83;71.72
62926;BME280;55732;52.248;-0.844;2023-03-04T07:11:17;102240.83;;;4.83;71.66
62926;BME280;55732;52.248;-0.844;2023-03-04T07:13:43;102236.80;;;4.83;71.77
62926;BME280;55732;52.248;-0.844;2023-03-04T07:16:12;102236.83;;;4.84;71.66
62926;BME280;55732;52.248;-0.844;2023-03-04T07:18:38;102245.90;;;4.84;71.69
62926;BME280;55732;52.248;-0.844;2023-03-04T07:21:05;102243.64;;;4.84;71.92
62926;BME280;55732;52.248;-0.844;2023-03-04T07:23:31;102246.33;;;4.86;71.89
62926;BME280;55732;52.248;-0.844;2023-03-04T07:25:56;102247.50;;;4.88;71.78
62926;BME280;55732;52.248;-0.844;2023-03-04T07:28:22;102250.22;;;4.90;71.70
62926;BME280;55732;52.248;-0.844;2023-03-04T07:30:47;102246.02;;;4.93;71.87
62926;BME280;55732;52.248;-0.844;2023-03-04T07:33:13;102250.55;;;4.97;71.62
62926;BME280;55732;52.248;-0.844;2023-03-04T07:35:39;102253.70;;;5.00;71.67
62926;BME280;55732;52.248;-0.844;2023-03-04T07:38:06;102253.17;;;5.04;71.59
62926;BME280;55732;52.248;-0.844;2023-03-04T07:40:31;102254.98;;;5.05;71.62
62926;BME280;55732;52.248;-0.844;2023-03-04T07:42:57;102258.52;;;5.06;71.40
62926;BME280;55732;52.248;-0.844;2023-03-04T07:45:23;102253.80;;;5.03;71.27
62926;BME280;55732;52.248;-0.844;2023-03-04T07:47:49;102252.26;;;5.03;71.31
62926;BME280;55732;52.248;-0.844;2023-03-04T07:50:15;102253.91;;;5.04;71.15
62926;BME280;55732;52.248;-0.844;2023-03-04T07:52:44;102255.54;;;5.06;71.13
62926;BME280;55732;52.248;-0.844;2023-03-04T07:55:11;102260.08;;;5.06;71.12
62926;BME280;55732;52.248;-0.844;2023-03-04T07:57:39;102259.90;;;5.05;71.15
62926;BME280;55732;52.248;-0.844;2023-03-04T08:00:05;102263.59;;;5.06;71.25
62926;BME280;55732;52.248;-0.844;2023-03-04T08:02:30;102269.55;;;5.07;71.15
62926;BME280;55732;52.248;-0.844;2023-03-04T08:04:56;102273.22;;;5.07;71.23
62926;BME280;55732;52.248;-0.844;2023-03-04T08:07:22;102278.45;;;5.11;71.25
62926;BME280;55732;52.248;-0.844;2023-03-04T08:09:48;102277.43;;;5.15;71.21
62926;BME280;55732;52.248;-0.844;2023-03-04T08:12:13;102273.61;;;5.19;71.17
62926;BME280;55732;52.248;-0.844;2023-03-04T08:14:38;102278.05;;;5.24;71.10
62926;BME280;55732;52.248;-0.844;2023-03-04T08:17:04;102278.75;;;5.28;70.78
62926;BME280;55732;52.248;-0.844;2023-03-04T08:19:29;102281.53;;;5.28;70.74
62926;BME280;55732;52.248;-0.844;2023-03-04T08:21:55;102282.08;;;5.28;70.49
62926;BME280;55732;52.248;-0.844;2023-03-04T08:24:20;102282.66;;;5.29;70.45
62926;BME280;55732;52.248;-0.844;2023-03-04T08:26:48;102287.73;;;5.29;70.21
62926;BME280;55732;52.248;-0.844;2023-03-04T08:29:22;102283.60;;;5.27;70.01
62926;BME280;55732;52.248;-0.844;2023-03-04T08:31:49;102284.30;;;5.23;70.03
62926;BME280;55732;52.248;-0.844;2023-03-04T08:34:16;102284.23;;;5.22;70.15
62926;BME280;55732;52.248;-0.844;2023-03-04T08:36:41;102283.48;;;5.25;70.28
62926;BME280;55732;52.248;-0.844;2023-03-04T08:39:08;102282.23;;;5.27;70.25
62926;BME280;55732;52.248;-0.844;2023-03-04T08:41:34;102283.88;;;5.29;70.03
62926;BME280;55732;52.248;-0.844;2023-03-04T08:44:00;102281.80;;;5.30;69.97
62926;BME280;55732;52.248;-0.844;2023-03-04T08:46:26;102285.42;;;5.29;69.94
62926;BME280;55732;52.248;-0.844;2023-03-04T08:48:51;102283.92;;;5.30;69.96
62926;BME280;55732;52.248;-0.844;2023-03-04T08:51:17;102280.41;;;5.34;70.10
62926;BME280;55732;52.248;-0.844;2023-03-04T08:53:43;102273.98;;;5.38;70.04
62926;BME280;55732;52.248;-0.844;2023-03-04T08:56:09;102275.48;;;5.44;70.12
62926;BME280;55732;52.248;-0.844;2023-03-04T08:58:35;102278.91;;;5.50;69.98
62926;BME280;55732;52.248;-0.844;2023-03-04T09:01:02;102278.05;;;5.54;69.85
62926;BME280;55732;52.248;-0.844;2023-03-04T09:03:27;102277.50;;;5.57;69.53
62926;BME280;55732;52.248;-0.844;2023-03-04T09:05:53;102278.38;;;5.57;69.23
62926;BME280;55732;52.248;-0.844;2023-03-04T09:08:19;102274.41;;;5.58;69.23
62926;BME280;55732;52.248;-0.844;2023-03-04T09:10:45;102273.12;;;5.61;69.37
62926;BME280;55732;52.248;-0.844;2023-03-04T09:13:11;102267.40;;;5.62;69.34
62926;BME280;55732;52.248;-0.844;2023-03-04T09:15:46;102266.08;;;5.63;69.26
62926;BME280;55732;52.248;-0.844;2023-03-04T09:18:13;102264.14;;;5.66;69.16
62926;BME280;55732;52.248;-0.844;2023-03-04T09:20:39;102267.36;;;5.68;68.99
62926;BME280;55732;52.248;-0.844;2023-03-04T09:23:05;102267.81;;;5.70;68.90
62926;BME280;55732;52.248;-0.844;2023-03-04T09:25:31;102267.94;;;5.73;68.89
62926;BME280;55732;52.248;-0.844;2023-03-04T09:27:57;102267.94;;;5.77;68.91
62926;BME280;55732;52.248;-0.844;2023-03-04T09:30:22;102267.33;;;5.79;68.77
62926;BME280;55732;52.248;-0.844;2023-03-04T09:32:48;102270.95;;;5.82;68.68
62926;BME280;55732;52.248;-0.844;2023-03-04T09:35:13;102272.55;;;5.83;68.37
62926;BME280;55732;52.248;-0.844;2023-03-04T09:37:38;102271.88;;;5.83;68.45
62926;BME280;55732;52.248;-0.844;2023-03-04T09:40:05;102270.73;;;5.85;68.41
62926;BME280;55732;52.248;-0.844;2023-03-04T09:42:40;102271.61;;;5.89;68.41
62926;BME280;55732;52.248;-0.844;2023-03-04T09:45:10;102272.92;;;5.94;68.34
62926;BME280;55732;52.248;-0.844;2023-03-04T09:47:39;102268.77;;;5.99;68.26
62926;BME280;55732;52.248;-0.844;2023-03-04T09:50:07;102269.98;;;6.02;68.10
62926;BME280;55732;52.248;-0.844;2023-03-04T10:00:51;102264.61;;;6.24;67.54
62926;BME280;55732;52.248;-0.844;2023-03-04T10:03:23;102264.63;;;6.28;67.43
62926;BME280;55732;52.248;-0.844;2023-03-04T10:05:55;102262.77;;;6.33;67.46
62926;BME280;55732;52.248;-0.844;2023-03-04T10:10:58;102266.91;;;6.40;67.22
62926;BME280;55732;52.248;-0.844;2023-03-04T10:13:50;102265.72;;;6.37;67.11
62926;BME280;55732;52.248;-0.844;2023-03-04T10:16:21;102263.06;;;6.36;66.79
62926;BME280;55732;52.248;-0.844;2023-03-04T10:21:45;102255.52;;;6.44;66.72
62926;BME280;55732;52.248;-0.844;2023-03-04T10:24:13;102252.58;;;6.53;66.59
62926;BME280;55732;52.248;-0.844;2023-03-04T10:26:41;102251.41;;;6.63;66.41
62926;BME280;55732;52.248;-0.844;2023-03-04T10:29:14;102253.30;;;6.74;66.36
62926;BME280;55732;52.248;-0.844;2023-03-04T10:31:40;102257.11;;;6.87;66.05
62926;BME280;55732;52.248;-0.844;2023-03-04T10:34:13;102254.73;;;6.97;65.85
62926;BME280;55732;52.248;-0.844;2023-03-04T10:36:59;102255.09;;;7.06;65.51
62926;BME280;55732;52.248;-0.844;2023-03-04T10:39:30;102257.43;;;7.21;65.53
62926;BME280;55732;52.248;-0.844;2023-03-04T10:44:24;102249.08;;;7.45;64.40
62926;BME280;55732;52.248;-0.844;2023-03-04T10:46:53;102249.08;;;7.63;64.18
62926;BME280;55732;52.248;-0.844;2023-03-04T10:49:20;102252.42;;;7.77;63.66
62926;BME280;55732;52.248;-0.844;2023-03-04T10:52:14;102245.58;;;7.87;63.44
62926;BME280;55732;52.248;-0.844;2023-03-04T10:54:48;102240.70;;;7.98;63.15
62926;BME280;55732;52.248;-0.844;2023-03-04T10:57:18;102239.88;;;8.09;62.58
62926;BME280;55732;52.248;-0.844;2023-03-04T10:59:54;102239.58;;;8.20;62.41
62926;BME280;55732;52.248;-0.844;2023-03-04T11:02:33;102240.41;;;8.34;62.34
62926;BME280;55732;52.248;-0.844;2023-03-04T11:07:38;102232.52;;;8.49;61.92
62926;BME280;55732;52.248;-0.844;2023-03-04T11:10:29;102233.14;;;8.52;61.82
62926;BME280;55732;52.248;-0.844;2023-03-04T11:13:01;102230.42;;;8.55;61.37
62926;BME280;55732;52.248;-0.844;2023-03-04T11:15:47;102231.66;;;8.65;60.88
62926;BME280;55732;52.248;-0.844;2023-03-04T11:18:14;102225.27;;;8.75;60.81
62926;BME280;55732;52.248;-0.844;2023-03-04T11:20:43;102226.81;;;8.78;61.14
62926;BME280;55732;52.248;-0.844;2023-03-04T11:23:17;102223.77;;;8.81;60.91
62926;BME280;55732;52.248;-0.844;2023-03-04T11:25:50;102226.33;;;8.85;60.53
62926;BME280;55732;52.248;-0.844;2023-03-04T11:28:23;102231.73;;;8.83;60.39
62926;BME280;55732;52.248;-0.844;2023-03-04T11:31:00;102227.96;;;8.76;60.52
62926;BME280;55732;52.248;-0.844;2023-03-04T11:33:53;102229.53;;;8.69;60.13
62926;BME280;55732;52.248;-0.844;2023-03-04T11:38:56;102220.16;;;8.52;60.19
62926;BME280;55732;52.248;-0.844;2023-03-04T11:41:33;102216.93;;;8.50;60.22
62926;BME280;55732;52.248;-0.844;2023-03-04T11:44:00;102212.66;;;8.48;60.37
62926;BME280;55732;52.248;-0.844;2023-03-04T11:53:01;102197.13;;;8.21;60.33
62926;BME280;55732;52.248;-0.844;2023-03-04T11:58:37;102187.29;;;8.20;60.39
62926;BME280;55732;52.248;-0.844;2023-03-04T12:01:17;102185.75;;;8.17;60.29
62926;BME280;55732;52.248;-0.844;2023-03-04T12:09:02;102180.83;;;7.96;60.31
62926;BME280;55732;52.248;-0.844;2023-03-04T12:14:40;102177.10;;;7.89;60.49
62926;BME280;55732;52.248;-0.844;2023-03-04T12:20:09;102168.65;;;7.84;60.10
62926;BME280;55732;52.248;-0.844;2023-03-04T12:23:00;102163.73;;;7.84;60.08
62926;BME280;55732;52.248;-0.844;2023-03-04T12:28:30;102155.20;;;7.80;60.45
62926;BME280;55732;52.248;-0.844;2023-03-04T12:31:19;102155.30;;;7.78;60.46
62926;BME280;55732;52.248;-0.844;2023-03-04T12:34:01;102152.71;;;7.74;60.41
62926;BME280;55732;52.248;-0.844;2023-03-04T12:40:29;102141.48;;;7.70;60.37
62926;BME280;55732;52.248;-0.844;2023-03-04T12:42:35;102139.84;;;7.68;60.27
62926;BME280;55732;52.248;-0.844;2023-03-04T12:45:24;102142.66;;;7.68;60.30
62926;BME280;55732;52.248;-0.844;2023-03-04T12:48:20;102139.74;;;7.70;60.46
62926;BME280;55732;52.248;-0.844;2023-03-04T12:56:40;102126.89;;;7.58;60.55
62926;BME280;55732;52.248;-0.844;2023-03-04T12:59:16;102121.25;;;7.52;60.81
62926;BME280;55732;52.248;-0.844;2023-03-04T13:01:59;102119.30;;;7.47;60.57
62926;BME280;55732;52.248;-0.844;2023-03-04T13:07:26;102115.14;;;7.38;61.07
62926;BME280;55732;52.248;-0.844;2023-03-04T13:10:19;102109.71;;;7.39;61.01
62926;BME280;55732;52.248;-0.844;2023-03-04T13:17:58;102101.70;;;7.55;61.14
62926;BME280;55732;52.248;-0.844;2023-03-04T13:20:38;102100.59;;;7.58;60.86
62926;BME280;55732;52.248;-0.844;2023-03-04T13:26:17;102085.10;;;7.61;60.42
62926;BME280;55732;52.248;-0.844;2023-03-04T13:28:36;102084.98;;;7.68;60.46
62926;BME280;55732;52.248;-0.844;2023-03-04T13:31:13;102083.43;;;7.73;60.21
62926;BME280;55732;52.248;-0.844;2023-03-04T13:33:46;102080.63;;;7.79;60.26
62926;BME280;55732;52.248;-0.844;2023-03-04T13:41:45;102084.83;;;7.83;60.17
62926;BME280;55732;52.248;-0.844;2023-03-04T13:44:33;102087.21;;;7.82;60.25
62926;BME280;55732;52.248;-0.844;2023-03-04T13:47:08;102089.95;;;7.80;60.16
62926;BME280;55732;52.248;-0.844;2023-03-04T13:49:37;102088.71;;;7.74;59.96
62926;BME280;55732;52.248;-0.844;2023-03-04T13:52:41;102085.18;;;7.63;59.94
62926;BME280;55732;52.248;-0.844;2023-03-04T13:55:37;102085.20;;;7.53;59.93
62926;BME280;55732;52.248;-0.844;2023-03-04T13:58:17;102084.46;;;7.48;60.20
62926;BME280;55732;52.248;-0.844;2023-03-04T14:00:47;102079.98;;;7.45;60.14
62926;BME280;55732;52.248;-0.844;2023-03-04T14:03:19;102077.27;;;7.42;60.26
62926;BME280;55732;52.248;-0.844;2023-03-04T14:05:45;102077.98;;;7.43;60.23
62926;BME280;55732;52.248;-0.844;2023-03-04T14:08:18;102074.50;;;7.44;60.35
62926;BME280;55732;52.248;-0.844;2023-03-04T14:10:53;102072.85;;;7.47;60.36